Time;durP1;ratioP1;P1;durP2;ratioP2;P2;SDS_P1;SDS_P2;PMS_P1;PMS_P2;Temp;Humidity;BMP_temperature;BMP_pressure;BME280_temperature;BME280_humidity;BME280_pressure;Samples;Min_cycle;Max_cycle;Signal;HPM_P1;HPM_P2
2023/06/07 00:00:09;;;;;;;80.50;2.23;;;20.10;30.30;;;;;;5012594;28;20253;-72
2023/06/07 00:02:36;;;;;;;80.40;2.20;;;20.10;30.90;;;;;;5012591;28;20183;-72
2023/06/07 00:05:02;;;;;;;80.30;2.03;;;20.00;31.50;;;;;;5012726;28;20417;-72
2023/06/07 00:07:27;;;;;;;80.57;2.30;;;19.90;31.90;;;;;;5012423;28;20418;-72
2023/06/07 00:09:53;;;;;;;80.97;2.70;;;19.90;32.40;;;;;;5012725;28;20431;-72
2023/06/07 00:12:18;;;;;;;80.57;2.23;;;19.90;31.30;;;;;;5013231;28;20180;-72
2023/06/07 00:14:44;;;;;;;80.80;2.43;;;20.00;31.50;;;;;;5012121;28;20673;-72
2023/06/07 00:17:10;;;;;;;80.80;2.30;;;19.90;32.10;;;;;;5012961;28;20295;-72
2023/06/07 00:19:36;;;;;;;81.40;2.50;;;19.80;31.00;;;;;;5012855;28;20193;-72
2023/06/07 00:22:02;;;;;;;81.07;2.47;;;19.70;31.20;;;;;;5012926;28;20412;-70
2023/06/07 00:24:27;;;;;;;80.37;2.20;;;19.70;31.80;;;;;;5012306;28;20178;-72
2023/06/07 00:26:53;;;;;;;80.57;2.20;;;19.60;32.90;;;;;;5013100;28;20942;-72
2023/06/07 00:29:19;;;;;;;80.70;2.30;;;19.70;32.30;;;;;;5012805;28;20277;-72
2023/06/07 00:31:44;;;;;;;81.43;2.50;;;19.70;32.90;;;;;;5012356;28;20248;-72
2023/06/07 00:34:10;;;;;;;80.77;2.20;;;19.60;32.90;;;;;;5012024;28;20189;-72
2023/06/07 00:36:36;;;;;;;81.43;2.63;;;19.50;32.80;;;;;;5012562;28;20173;-71
2023/06/07 00:39:02;;;;;;;81.27;2.70;;;19.50;33.20;;;;;;5012382;28;20199;-73
2023/06/07 00:41:28;;;;;;;81.80;2.73;;;19.30;33.60;;;;;;5012378;28;20411;-72
2023/06/07 00:43:54;;;;;;;81.27;2.60;;;19.20;33.40;;;;;;5012406;28;20417;-72
2023/06/07 00:46:25;;;;;;;80.97;2.23;;;19.30;33.60;;;;;;5013769;28;20421;-74
2023/06/07 00:48:51;;;;;;;81.17;2.27;;;19.50;32.10;;;;;;5013586;28;20747;-73
2023/06/07 00:51:17;;;;;;;81.30;2.40;;;19.50;33.10;;;;;;5012734;28;20469;-73
2023/06/07 00:53:47;;;;;;;81.77;2.83;;;19.30;34.60;;;;;;5012289;28;20483;-73
2023/06/07 00:56:12;;;;;;;81.30;2.40;;;19.20;33.70;;;;;;5011747;28;20418;-72
2023/06/07 00:58:38;;;;;;;81.50;2.70;;;19.10;33.90;;;;;;5014752;28;20832;-73
2023/06/07 01:01:05;;;;;;;83.33;2.80;;;19.10;33.20;;;;;;5015106;28;20823;-72
2023/06/07 01:03:34;;;;;;;81.90;2.30;;;18.60;34.60;;;;;;5014994;28;20227;-73
2023/06/07 01:06:03;;;;;;;82.23;2.63;;;18.80;34.70;;;;;;5015524;28;20415;-74
2023/06/07 01:08:33;;;;;;;81.97;2.27;;;18.80;35.20;;;;;;5015665;28;20807;-74
2023/06/07 01:11:00;;;;;;;81.67;2.40;;;18.80;35.10;;;;;;5015515;28;20788;-73
2023/06/07 01:13:27;;;;;;;81.50;2.30;;;18.70;34.20;;;;;;5014668;28;20421;-74
2023/06/07 01:15:53;;;;;;;82.73;2.87;;;18.70;34.10;;;;;;5015283;28;20483;-73
2023/06/07 01:18:18;;;;;;;81.80;2.40;;;18.80;34.80;;;;;;5016049;28;20420;-73
2023/06/07 01:20:50;;;;;;;81.93;2.33;;;18.80;34.70;;;;;;5015687;28;20444;-72
2023/06/07 01:23:27;;;;;;;81.97;2.30;;;18.70;33.90;;;;;;5015219;28;20425;-73
2023/06/07 01:25:55;;;;;;;83.20;2.77;;;18.70;34.50;;;;;;5015658;28;20398;-71
2023/06/07 01:28:21;;;;;;;81.70;2.10;;;18.70;34.10;;;;;;5015379;28;20412;-72
2023/06/07 01:30:48;;;;;;;82.20;2.40;;;18.60;34.60;;;;;;5015866;28;20859;-72
2023/06/07 01:33:16;;;;;;;82.37;2.57;;;18.50;34.50;;;;;;5014943;28;20959;-73
2023/06/07 01:35:41;;;;;;;82.87;2.70;;;18.40;35.20;;;;;;5014981;28;20483;-71
2023/06/07 01:38:08;;;;;;;82.83;2.70;;;18.20;36.50;;;;;;5015553;28;20468;-72
2023/06/07 01:40:35;;;;;;;82.70;2.47;;;18.20;36.10;;;;;;5014877;28;20198;-71
2023/06/07 01:43:02;;;;;;;83.23;2.83;;;18.20;36.20;;;;;;5014597;28;20437;-73
2023/06/07 01:45:27;;;;;;;83.27;2.70;;;18.10;36.10;;;;;;5015368;28;20416;-73
2023/06/07 01:47:53;;;;;;;83.37;2.80;;;18.20;36.00;;;;;;5015291;28;20479;-73
2023/06/07 01:50:22;;;;;;;85.40;3.50;;;18.10;36.10;;;;;;5015153;28;20440;-73
2023/06/07 01:52:48;;;;;;;82.97;2.30;;;18.10;36.60;;;;;;5014332;28;20189;-71
2023/06/07 01:55:14;;;;;;;82.60;2.60;;;18.10;36.90;;;;;;5015074;28;20892;-73
2023/06/07 01:58:01;;;;;;;83.00;2.53;;;18.00;37.00;;;;;;5014755;28;20170;-72
2023/06/07 02:00:35;;;;;;;82.97;2.17;;;18.00;36.90;;;;;;5014676;28;20563;-73
2023/06/07 02:03:16;;;;;;;84.27;2.80;;;18.00;36.50;;;;;;5013982;28;20503;-72
2023/06/07 02:05:47;;;;;;;82.93;2.47;;;18.00;36.70;;;;;;5014820;28;20404;-72
2023/06/07 02:08:22;;;;;;;83.87;2.70;;;18.00;37.10;;;;;;5014783;28;20423;-73
2023/06/07 02:10:51;;;;;;;82.60;2.40;;;18.10;37.00;;;;;;5013524;28;20932;-72
2023/06/07 02:13:19;;;;;;;82.57;2.20;;;18.30;36.50;;;;;;5014074;28;20412;-72
2023/06/07 02:15:45;;;;;;;83.43;2.50;;;18.30;36.40;;;;;;5014626;28;20458;-72
2023/06/07 02:18:12;;;;;;;83.20;2.20;;;17.90;36.60;;;;;;5014651;28;20420;-73
2023/06/07 02:20:38;;;;;;;83.07;2.40;;;17.80;37.40;;;;;;5012955;28;20466;-73
2023/06/07 02:23:04;;;;;;;83.17;2.47;;;17.80;37.20;;;;;;5013825;28;20900;-73
2023/06/07 02:25:30;;;;;;;83.93;2.83;;;17.90;37.30;;;;;;5014589;28;20415;-73
2023/06/07 02:27:57;;;;;;;83.47;2.50;;;18.00;37.00;;;;;;5014852;28;20203;-73
2023/06/07 02:30:22;;;;;;;83.00;2.27;;;17.90;37.30;;;;;;5014362;28;20523;-73
2023/06/07 02:32:49;;;;;;;83.70;2.77;;;18.00;37.80;;;;;;5013284;28;20529;-72
2023/06/07 02:35:17;;;;;;;82.80;2.10;;;17.90;38.10;;;;;;5013751;28;20205;-72
2023/06/07 02:37:43;;;;;;;82.80;2.00;;;17.90;37.30;;;;;;5014005;28;20492;-73
2023/06/07 02:40:09;;;;;;;83.30;2.40;;;17.70;37.80;;;;;;5014335;28;20442;-73
2023/06/07 02:42:42;;;;;;;83.27;2.40;;;17.80;37.50;;;;;;5013352;28;20220;-72
2023/06/07 02:45:08;;;;;;;83.27;2.20;;;17.70;37.60;;;;;;5014130;28;20416;-74
2023/06/07 02:47:34;;;;;;;83.60;2.40;;;17.80;38.00;;;;;;5013773;28;20496;-73
2023/06/07 02:50:00;;;;;;;83.70;2.57;;;17.60;37.80;;;;;;5014103;28;20463;-73
2023/06/07 02:52:26;;;;;;;84.50;2.73;;;17.50;37.90;;;;;;5013866;28;20183;-72
2023/06/07 02:54:52;;;;;;;83.57;2.40;;;17.60;38.30;;;;;;5013326;28;20459;-72
2023/06/07 02:57:17;;;;;;;83.87;2.40;;;17.60;37.80;;;;;;5013921;28;20178;-70
2023/06/07 02:59:44;;;;;;;83.80;2.50;;;17.60;37.70;;;;;;5013445;28;20310;-73
2023/06/07 03:02:10;;;;;;;83.80;2.70;;;17.40;38.50;;;;;;5013750;28;20181;-72
2023/06/07 03:04:38;;;;;;;84.90;3.17;;;17.40;38.60;;;;;;5011761;28;20797;-72
2023/06/07 03:07:05;;;;;;;84.17;2.80;;;17.40;37.90;;;;;;5013543;28;20472;-71
2023/06/07 03:09:31;;;;;;;84.23;2.67;;;17.30;38.60;;;;;;5012107;28;20447;-72
2023/06/07 03:11:56;;;;;;;83.50;2.40;;;17.40;38.70;;;;;;5013276;28;20423;-72
2023/06/07 03:14:23;;;;;;;83.30;2.30;;;17.50;38.20;;;;;;5012858;28;20218;-72
2023/06/07 03:16:48;;;;;;;83.13;2.27;;;17.50;38.60;;;;;;5012149;28;20592;-72
2023/06/07 03:19:14;;;;;;;84.07;2.73;;;17.30;39.20;;;;;;5013341;28;20429;-72
2023/06/07 03:21:44;;;;;;;83.77;2.50;;;17.20;39.00;;;;;;5013051;28;20542;-72
2023/06/07 03:24:11;;;;;;;83.60;2.60;;;17.20;38.90;;;;;;5012778;28;20420;-73
2023/06/07 03:26:36;;;;;;;84.17;2.87;;;17.20;38.70;;;;;;5013180;28;20426;-72
2023/06/07 03:29:02;;;;;;;83.33;2.30;;;17.10;38.20;;;;;;5013270;28;20434;-72
2023/06/07 03:31:28;;;;;;;84.40;2.83;;;17.20;39.00;;;;;;5013326;28;20313;-72
2023/06/07 03:33:54;;;;;;;83.17;2.40;;;17.10;38.90;;;;;;5012436;28;20201;-72
2023/06/07 03:36:25;;;;;;;83.73;2.60;;;17.20;38.60;;;;;;5013357;28;20404;-73
2023/06/07 03:38:52;;;;;;;83.70;2.63;;;17.20;39.10;;;;;;5013190;28;20681;-73
2023/06/07 03:41:17;;;;;;;83.87;2.43;;;17.30;39.10;;;;;;5013701;28;20440;-73
2023/06/07 03:43:43;;;;;;;83.40;2.30;;;17.40;38.90;;;;;;5012584;28;20444;-73
2023/06/07 03:46:08;;;;;;;83.27;2.37;;;17.40;38.50;;;;;;5012964;28;20176;-72
2023/06/07 03:48:34;;;;;;;83.40;2.60;;;17.40;38.60;;;;;;5013100;28;20511;-72
2023/06/07 03:51:00;;;;;;;83.50;2.43;;;17.40;38.70;;;;;;5013274;28;20177;-73
2023/06/07 03:53:25;;;;;;;82.90;1.93;;;17.30;39.20;;;;;;5012303;28;20196;-72
2023/06/07 03:55:54;;;;;;;83.13;2.20;;;17.40;38.90;;;;;;5013124;28;20209;-73
2023/06/07 03:58:20;;;;;;;83.10;2.20;;;17.40;39.20;;;;;;5013722;28;20528;-74
2023/06/07 04:00:48;;;;;;;84.40;2.57;;;17.30;39.20;;;;;;5013727;28;20442;-74
2023/06/07 04:03:14;;;;;;;83.90;2.60;;;17.40;38.50;;;;;;5010901;28;20179;-72
2023/06/07 04:05:40;;;;;;;83.10;2.20;;;17.40;38.40;;;;;;5013149;28;20904;-73
2023/06/07 04:08:06;;;;;;;84.10;2.70;;;17.40;37.90;;;;;;5012936;28;20447;-72
2023/06/07 04:10:32;;;;;;;83.67;2.50;;;17.30;38.60;;;;;;5012537;28;20470;-73
2023/06/07 04:12:57;;;;;;;83.43;2.30;;;17.40;38.70;;;;;;5012327;28;20204;-72
2023/06/07 04:15:23;;;;;;;83.73;2.40;;;17.30;39.10;;;;;;5012541;28;20219;-71
2023/06/07 04:17:49;;;;;;;83.10;2.00;;;17.40;39.20;;;;;;5012542;28;20212;-73
2023/06/07 04:20:14;;;;;;;83.57;2.20;;;17.50;39.30;;;;;;5027492;28;20197;-72
2023/06/07 04:22:43;;;;;;;84.43;2.90;;;17.40;39.20;;;;;;5030202;28;20254;-72
2023/06/07 04:25:09;;;;;;;87.13;3.77;;;17.40;39.20;;;;;;5030286;28;20521;-72
2023/06/07 04:27:37;;;;;;;83.40;2.43;;;17.50;38.90;;;;;;5032304;28;20422;-72
2023/06/07 04:30:05;;;;;;;83.27;2.13;;;17.50;39.30;;;;;;5032076;28;20957;-73
2023/06/07 04:32:33;;;;;;;85.63;2.97;;;17.70;39.50;;;;;;5031905;28;20407;-72
2023/06/07 04:34:59;;;;;;;83.87;2.50;;;17.70;39.50;;;;;;5036249;28;20508;-73
2023/06/07 04:37:24;;;;;;;84.73;3.00;;;17.80;38.00;;;;;;5036033;28;20411;-73
2023/06/07 04:39:51;;;;;;;83.53;2.30;;;17.80;37.70;;;;;;5035892;28;20489;-72
2023/06/07 04:42:17;;;;;;;83.50;2.20;;;17.80;37.10;;;;;;5033565;28;20192;-73
2023/06/07 04:44:44;;;;;;;84.60;2.70;;;17.70;37.60;;;;;;5019985;28;20438;-73
2023/06/07 04:47:10;;;;;;;84.10;2.40;;;17.60;37.60;;;;;;5015535;28;21102;-73
2023/06/07 04:49:38;;;;;;;84.17;2.47;;;17.40;38.30;;;;;;5015595;28;20443;-73
2023/06/07 04:52:05;;;;;;;84.10;2.70;;;17.50;39.40;;;;;;5015568;28;20257;-74
2023/06/07 04:54:32;;;;;;;84.87;2.40;;;17.80;38.00;;;;;;5014858;28;20465;-74
2023/06/07 04:56:58;;;;;;;84.40;3.00;;;18.00;38.00;;;;;;5015747;28;20922;-74
2023/06/07 04:59:25;;;;;;;84.27;2.50;;;18.10;37.30;;;;;;5015112;28;20955;-71
2023/06/07 05:01:51;;;;;;;84.57;2.67;;;18.10;37.10;;;;;;5015112;28;20454;-72
2023/06/07 05:04:18;;;;;;;84.27;2.50;;;18.10;37.40;;;;;;5015092;28;20920;-73
2023/06/07 05:06:43;;;;;;;84.37;2.87;;;18.20;35.90;;;;;;5023090;28;20423;-73
2023/06/07 05:09:09;;;;;;;84.50;2.87;;;18.30;36.30;;;;;;5034799;22;20866;-72
2023/06/07 05:11:35;;;;;;;83.37;2.30;;;18.30;36.60;;;;;;5033570;28;20176;-71
2023/06/07 05:14:00;;;;;;;85.30;3.00;;;18.30;36.30;;;;;;5033446;28;20251;-73
2023/06/07 05:16:26;;;;;;;84.23;3.00;;;18.40;36.20;;;;;;5034640;28;20176;-73
2023/06/07 05:18:53;;;;;;;83.87;2.60;;;18.40;36.20;;;;;;5034261;28;20193;-73
2023/06/07 05:21:18;;;;;;;83.77;2.47;;;18.60;36.70;;;;;;5034544;28;20169;-73
2023/06/07 05:23:44;;;;;;;83.60;2.30;;;18.70;36.90;;;;;;5033605;28;20749;-73
2023/06/07 05:26:10;;;;;;;83.80;2.53;;;18.90;36.80;;;;;;5034099;28;20205;-72
2023/06/07 05:28:36;;;;;;;85.00;2.70;;;18.90;37.00;;;;;;5034527;28;20432;-72
2023/06/07 05:31:02;;;;;;;83.40;2.27;;;18.90;36.50;;;;;;5034563;28;20167;-72
2023/06/07 05:33:28;;;;;;;85.07;2.90;;;18.80;34.30;;;;;;5034834;28;20176;-72
2023/06/07 05:35:54;;;;;;;85.77;3.10;;;18.20;36.40;;;;;;5035584;28;20462;-69
2023/06/07 05:38:20;;;;;;;85.27;3.37;;;18.50;36.30;;;;;;5033035;28;20514;-69
2023/06/07 05:40:46;;;;;;;85.17;3.03;;;18.50;35.40;;;;;;5033387;28;20442;-69
2023/06/07 05:43:12;;;;;;;84.97;3.30;;;18.20;35.80;;;;;;5032898;28;20410;-70
2023/06/07 05:45:40;;;;;;;84.10;2.83;;;18.20;36.60;;;;;;5033028;28;20174;-70
2023/06/07 05:48:05;;;;;;;83.70;2.60;;;18.40;36.20;;;;;;5033298;28;20427;-73
2023/06/07 05:50:31;;;;;;;113.67;3.80;;;18.80;36.00;;;;;;5033311;28;20416;-69
2023/06/07 05:52:57;;;;;;;83.90;2.70;;;18.60;35.20;;;;;;5032676;28;20258;-69
2023/06/07 05:55:27;;;;;;;83.73;2.47;;;18.90;36.00;;;;;;5031884;28;20340;-69
2023/06/07 05:57:53;;;;;;;84.30;2.73;;;19.30;35.30;;;;;;5033011;28;20496;-69
2023/06/07 06:00:20;;;;;;;84.07;2.67;;;19.00;34.70;;;;;;5032831;28;20408;-69
2023/06/07 06:02:46;;;;;;;83.23;2.40;;;19.10;36.40;;;;;;5032934;28;20410;-69
2023/06/07 06:05:12;;;;;;;84.27;2.87;;;19.40;34.50;;;;;;5033060;28;20421;-69
2023/06/07 06:07:38;;;;;;;83.77;2.43;;;19.60;32.90;;;;;;4993945;28;1080550;-70
2023/06/07 06:10:04;;;;;;;83.93;2.60;;;18.80;36.00;;;;;;5034033;28;20667;-69
2023/06/07 06:12:30;;;;;;;83.77;2.70;;;19.20;35.50;;;;;;5033334;28;20184;-76
2023/06/07 06:14:56;;;;;;;87.07;2.73;;;19.70;35.30;;;;;;5033949;28;20460;-70
2023/06/07 06:17:22;;;;;;;84.07;3.10;;;19.40;33.40;;;;;;5033829;28;20429;-69
2023/06/07 06:19:48;;;;;;;83.93;2.70;;;19.10;34.50;;;;;;5033787;28;20178;-69
2023/06/07 06:22:14;;;;;;;83.70;2.67;;;18.90;35.10;;;;;;5033550;28;20407;-69
2023/06/07 06:24:39;;;;;;;83.63;2.67;;;19.20;35.80;;;;;;5033071;28;20184;-69
2023/06/07 06:27:08;;;;;;;85.07;2.43;;;19.10;34.80;;;;;;5033671;28;20618;-69
2023/06/07 06:29:34;;;;;;;83.53;2.67;;;19.10;34.90;;;;;;5033532;28;20207;-69
2023/06/07 06:32:00;;;;;;;83.47;2.60;;;19.10;34.60;;;;;;5033656;28;20442;-69
2023/06/07 06:34:28;;;;;;;83.70;2.70;;;19.30;33.90;;;;;;5032792;28;20494;-69
2023/06/07 06:36:53;;;;;;;83.90;2.40;;;19.30;34.30;;;;;;5031918;28;20426;-69
2023/06/07 06:39:19;;;;;;;84.90;2.80;;;19.60;33.90;;;;;;5033368;28;20475;-69
2023/06/07 06:41:45;;;;;;;83.77;2.50;;;19.30;33.70;;;;;;5033484;28;20246;-69
2023/06/07 06:44:11;;;;;;;83.20;2.37;;;19.60;34.10;;;;;;5032850;28;20184;-71
2023/06/07 06:46:36;;;;;;;83.67;2.80;;;19.90;33.20;;;;;;5033417;28;20186;-69
2023/06/07 06:49:02;;;;;;;83.13;2.50;;;19.80;33.00;;;;;;5033057;28;20215;-69
2023/06/07 06:51:28;;;;;;;82.83;2.43;;;19.40;33.70;;;;;;5033077;28;20184;-69
2023/06/07 06:53:53;;;;;;;83.97;2.40;;;19.90;33.20;;;;;;5032519;28;20173;-69
2023/06/07 06:56:20;;;;;;;82.97;2.50;;;20.00;33.00;;;;;;5032398;28;20177;-71
2023/06/07 06:58:46;;;;;;;82.50;2.30;;;19.60;34.50;;;;;;5033059;28;20203;-70
2023/06/07 07:01:14;;;;;;;82.60;2.30;;;19.60;34.40;;;;;;5033061;28;20760;-69
2023/06/07 07:03:40;;;;;;;83.67;2.87;;;19.40;35.70;;;;;;5032424;28;20415;-70
2023/06/07 07:06:07;;;;;;;83.37;2.33;;;19.60;34.80;;;;;;5032872;28;20770;-69
2023/06/07 07:08:34;;;;;;;83.00;2.47;;;19.70;34.40;;;;;;5032490;28;20456;-69
2023/06/07 07:11:00;;;;;;;84.10;3.10;;;19.30;35.60;;;;;;5032828;28;20426;-69
2023/06/07 07:13:25;;;;;;;82.50;2.03;;;19.00;36.50;;;;;;5032217;28;20404;-70
2023/06/07 07:15:51;;;;;;;82.90;2.50;;;19.00;37.10;;;;;;5032581;28;20259;-69
2023/06/07 07:18:17;;;;;;;82.50;2.30;;;19.50;36.00;;;;;;5032687;28;20627;-69
2023/06/07 07:20:43;;;;;;;83.50;2.43;;;20.10;35.30;;;;;;5032432;28;20641;-69
2023/06/07 07:23:08;;;;;;;82.57;2.20;;;20.80;33.00;;;;;;5032143;28;20530;-70
2023/06/07 07:25:34;;;;;;;83.97;2.87;;;21.50;32.60;;;;;;5032691;28;20533;-70
2023/06/07 07:27:59;;;;;;;82.77;2.20;;;21.60;30.20;;;;;;5032572;28;20734;-69
2023/06/07 07:30:25;;;;;;;82.93;2.63;;;21.10;30.50;;;;;;5032318;28;20244;-69
2023/06/07 07:32:51;;;;;;;82.50;2.30;;;21.10;31.50;;;;;;5032207;28;20566;-69
2023/06/07 07:35:16;;;;;;;82.30;2.27;;;21.70;29.20;;;;;;5032333;28;20198;-70
2023/06/07 07:37:44;;;;;;;82.97;2.60;;;21.20;30.00;;;;;;5032346;28;20445;-70
2023/06/07 07:40:10;;;;;;;82.50;2.40;;;21.10;30.60;;;;;;5032308;28;20169;-70
2023/06/07 07:42:37;;;;;;;82.77;2.50;;;20.90;30.90;;;;;;5031608;28;20404;-69
2023/06/07 07:45:03;;;;;;;82.37;2.47;;;20.60;31.10;;;;;;5032218;28;20413;-70
2023/06/07 07:47:29;;;;;;;83.53;2.80;;;20.70;31.00;;;;;;5032161;28;20403;-71
2023/06/07 07:49:55;;;;;;;82.50;2.63;;;21.50;30.40;;;;;;5032195;28;20466;-70
2023/06/07 07:52:21;;;;;;;82.50;2.37;;;21.80;29.00;;;;;;5031851;28;20185;-72
2023/06/07 07:54:47;;;;;;;82.57;2.70;;;22.00;29.10;;;;;;5031537;28;20211;-73
2023/06/07 07:57:12;;;;;;;82.97;2.70;;;21.70;29.00;;;;;;5032049;28;20446;-72
2023/06/07 07:59:38;;;;;;;82.07;2.30;;;21.20;30.00;;;;;;5032112;28;20412;-69
2023/06/07 08:02:04;;;;;;;82.40;2.40;;;21.50;29.30;;;;;;5031729;28;20195;-69
2023/06/07 08:04:30;;;;;;;82.37;2.67;;;21.10;30.00;;;;;;5031703;28;20263;-70
2023/06/07 08:06:55;;;;;;;84.03;2.83;;;21.30;30.00;;;;;;5031602;28;20187;-70
2023/06/07 08:09:21;;;;;;;82.10;2.50;;;21.10;31.20;;;;;;5031226;28;20457;-70
2023/06/07 08:11:47;;;;;;;82.10;2.20;;;21.60;30.40;;;;;;5031919;28;20592;-69
2023/06/07 08:14:14;;;;;;;82.60;2.70;;;22.30;29.60;;;;;;5031406;28;20223;-70
2023/06/07 08:16:39;;;;;;;82.60;2.60;;;22.90;28.60;;;;;;5031779;28;20410;-70
2023/06/07 08:19:07;;;;;;;82.10;2.30;;;23.10;26.60;;;;;;5031839;28;20493;-73
2023/06/07 08:21:33;;;;;;;84.67;3.10;;;23.30;27.70;;;;;;5031788;28;20681;-70
2023/06/07 08:23:59;;;;;;;82.40;2.70;;;23.10;27.10;;;;;;5031200;28;20415;-70
2023/06/07 08:26:25;;;;;;;82.17;2.47;;;23.40;27.70;;;;;;5031830;28;20415;-70
2023/06/07 08:28:50;;;;;;;82.27;2.50;;;23.30;25.20;;;;;;5031762;28;20965;-70
2023/06/07 08:31:17;;;;;;;82.00;2.30;;;23.20;26.40;;;;;;5031532;28;20975;-70
2023/06/07 08:33:43;;;;;;;82.40;2.80;;;23.40;26.00;;;;;;5031017;28;20188;-70
2023/06/07 08:36:09;;;;;;;81.67;2.20;;;23.30;27.20;;;;;;5031712;28;20900;-70
2023/06/07 08:38:38;;;;;;;81.70;2.50;;;23.60;25.80;;;;;;5031687;28;20200;-70
2023/06/07 08:41:04;;;;;;;81.87;2.40;;;23.60;26.00;;;;;;5031498;28;20430;-71
2023/06/07 08:43:29;;;;;;;81.80;2.50;;;23.80;25.50;;;;;;5031240;28;20425;-70
2023/06/07 08:45:56;;;;;;;83.90;2.63;;;24.00;25.70;;;;;;5031468;28;20605;-70
2023/06/07 08:48:22;;;;;;;81.57;2.50;;;23.10;26.50;;;;;;5031533;28;20290;-70
2023/06/07 08:50:50;;;;;;;81.70;2.30;;;22.90;26.60;;;;;;5031543;28;20463;-70
2023/06/07 08:53:24;;;;;;;82.20;2.77;;;22.90;26.90;;;;;;5031007;28;20438;-71
2023/06/07 08:55:50;;;;;;;81.67;2.63;;;23.60;26.30;;;;;;5031641;28;20521;-70
2023/06/07 08:58:16;;;;;;;80.90;2.10;;;24.00;25.20;;;;;;5031231;28;20487;-70
2023/06/07 09:00:42;;;;;;;81.43;2.50;;;23.50;25.40;;;;;;5031582;28;20804;-70
2023/06/07 09:03:10;;;;;;;81.37;2.40;;;23.90;25.60;;;;;;5030987;28;20444;-73
2023/06/07 09:05:36;;;;;;;80.90;2.30;;;24.00;25.30;;;;;;5031573;28;20555;-73
2023/06/07 09:08:02;;;;;;;81.10;2.50;;;24.40;24.60;;;;;;5031260;28;20964;-70
2023/06/07 09:10:28;;;;;;;81.50;2.70;;;24.50;24.30;;;;;;5031558;28;20183;-70
2023/06/07 09:12:54;;;;;;;81.47;2.70;;;24.00;24.90;;;;;;5030422;28;20414;-70
2023/06/07 09:15:21;;;;;;;80.43;2.20;;;23.40;25.20;;;;;;5031372;28;20207;-69
2023/06/07 09:17:54;;;;;;;80.90;2.33;;;24.00;26.00;;;;;;5031185;28;20196;-70
2023/06/07 09:20:24;;;;;;;80.07;2.20;;;24.20;23.70;;;;;;5034316;28;20414;-70
2023/06/07 09:23:01;;;;;;;80.30;2.50;;;24.70;25.60;;;;;;5034205;28;20681;-70
2023/06/07 09:25:27;;;;;;;80.37;2.20;;;24.90;23.70;;;;;;5034964;28;20433;-70
2023/06/07 09:27:54;;;;;;;80.60;2.37;;;24.70;22.60;;;;;;5034580;28;20850;-72
2023/06/07 09:30:20;;;;;;;80.70;2.43;;;24.10;23.50;;;;;;5034820;28;20426;-70
2023/06/07 09:32:46;;;;;;;80.27;2.53;;;23.70;25.10;;;;;;5034164;28;20827;-70
2023/06/07 09:35:18;;;;;;;80.57;2.73;;;23.80;24.90;;;;;;5034726;28;20684;-70
2023/06/07 09:37:57;;;;;;;80.00;2.40;;;24.00;24.70;;;;;;5034491;28;20242;-70
2023/06/07 09:40:23;;;;;;;80.17;2.30;;;24.80;23.70;;;;;;5034644;28;20398;-70
2023/06/07 09:42:57;;;;;;;79.70;2.27;;;25.00;22.90;;;;;;5034023;28;20522;-70
2023/06/07 09:45:24;;;;;;;80.07;2.70;;;25.40;24.80;;;;;;5034533;28;20944;-71
2023/06/07 09:48:03;;;;;;;81.00;2.87;;;25.90;23.20;;;;;;5033977;28;20938;-72
2023/06/07 09:50:30;;;;;;;80.00;2.50;;;26.00;22.00;;;;;;5034386;28;20641;-72
2023/06/07 09:52:57;;;;;;;80.00;2.47;;;26.30;22.40;;;;;;5033583;28;20922;-72
2023/06/07 09:55:27;;;;;;;79.60;2.50;;;26.40;21.20;;;;;;5034187;28;20535;-72
2023/06/07 09:57:53;;;;;;;79.37;2.30;;;26.30;21.30;;;;;;5034078;28;20435;-72
2023/06/07 10:00:20;;;;;;;79.17;2.43;;;26.30;21.70;;;;;;5033964;28;20441;-72
2023/06/07 10:02:47;;;;;;;79.27;2.27;;;26.40;21.30;;;;;;5033354;28;20691;-72
2023/06/07 10:05:15;;;;;;;80.00;2.50;;;26.30;21.50;;;;;;5034448;28;20427;-72
2023/06/07 10:07:46;;;;;;;79.07;2.27;;;26.70;21.90;;;;;;5033784;28;20454;-72
2023/06/07 10:10:14;;;;;;;78.70;2.10;;;26.40;19.80;;;;;;5033824;28;20407;-72
2023/06/07 10:12:42;;;;;;;81.27;2.90;;;25.00;21.90;;;;;;5033276;28;20421;-72
2023/06/07 10:15:10;;;;;;;78.37;2.30;;;24.60;21.90;;;;;;5032496;28;20463;-72
2023/06/07 10:18:04;;;;;;;78.37;2.30;;;25.30;22.10;;;;;;5033337;28;20446;-72
2023/06/07 10:20:49;;;;;;;78.30;2.30;;;26.20;21.40;;;;;;5033827;28;20430;-72
2023/06/07 10:23:24;;;;;;;78.40;2.43;;;26.70;20.00;;;;;;5033067;28;20395;-72
2023/06/07 10:26:17;;;;;;;78.20;2.40;;;26.10;21.40;;;;;;5033414;28;20827;-72
2023/06/07 10:29:07;;;;;;;78.10;2.40;;;26.70;20.00;;;;;;5031969;28;20443;-72
2023/06/07 10:31:40;;;;;;;77.67;2.13;;;27.10;20.10;;;;;;5030928;28;20807;-72
2023/06/07 10:34:09;;;;;;;77.73;2.30;;;26.50;19.90;;;;;;5031817;28;21079;-72
2023/06/07 10:36:38;;;;;;;77.47;2.23;;;26.50;19.10;;;;;;5033223;28;20407;-72
2023/06/07 10:39:08;;;;;;;77.23;2.20;;;26.80;19.80;;;;;;5033415;28;20484;-72
2023/06/07 10:41:35;;;;;;;77.37;2.50;;;26.40;20.40;;;;;;5033441;28;20447;-72
2023/06/07 10:44:01;;;;;;;76.83;2.13;;;26.70;19.10;;;;;;5032527;28;20407;-72
2023/06/07 10:46:27;;;;;;;77.43;2.47;;;26.00;18.80;;;;;;5033114;28;20403;-72
2023/06/07 10:48:57;;;;;;;77.07;2.40;;;25.30;19.60;;;;;;5032995;28;20973;-72
2023/06/07 10:51:41;;;;;;;76.80;2.40;;;25.10;20.10;;;;;;5033298;28;20465;-72
2023/06/07 10:54:07;;;;;;;76.83;2.40;;;25.10;21.20;;;;;;5032329;28;20486;-72
2023/06/07 10:56:33;;;;;;;76.90;2.20;;;25.30;19.10;;;;;;5032875;28;20411;-72
2023/06/07 10:59:14;;;;;;;76.30;2.40;;;25.20;20.50;;;;;;5032959;28;20458;-72
